createdAt,value
2023-04-11T00:01:13.686Z,7.17
2023-04-11T00:04:01.097Z,6.83
2023-04-11T00:06:48.479Z,7.63
2023-04-11T00:09:35.672Z,7.50
2023-04-11T00:12:22.623Z,7.60
2023-04-11T00:15:10.069Z,7.33
2023-04-11T00:17:58.439Z,8.50
2023-04-11T00:20:45.412Z,7.57
2023-04-11T00:23:32.395Z,7.50
2023-04-11T00:26:19.772Z,7.20
2023-04-11T00:29:07.146Z,8.10
2023-04-11T00:31:55.486Z,7.80
2023-04-11T00:34:42.556Z,8.30
2023-04-11T00:37:35.886Z,7.70
2023-04-11T00:40:22.999Z,8.00
2023-04-11T00:43:10.090Z,6.93
2023-04-11T00:45:57.073Z,6.73
2023-04-11T00:48:44.859Z,7.70
2023-04-11T00:51:31.963Z,7.80
2023-04-11T00:54:19.056Z,7.23
2023-04-11T00:57:07.615Z,7.30
2023-04-11T00:59:55.836Z,7.00
2023-04-11T01:02:45.594Z,7.27
2023-04-11T01:05:34.063Z,7.20
2023-04-11T01:08:22.468Z,6.70
2023-04-11T01:11:12.659Z,6.40
2023-04-11T01:13:59.937Z,7.77
2023-04-11T01:16:48.387Z,7.10
2023-04-11T01:19:35.567Z,7.87
2023-04-11T01:22:23.129Z,7.67
2023-04-11T01:25:10.805Z,7.33
2023-04-11T01:27:58.093Z,6.90
2023-04-11T01:30:45.366Z,7.93
2023-04-11T01:33:32.597Z,7.40
2023-04-11T01:36:20.009Z,6.83
2023-04-11T01:39:07.201Z,7.47
2023-04-11T01:41:56.810Z,7.13
2023-04-11T01:44:45.412Z,7.57
2023-04-11T01:47:32.547Z,7.03
2023-04-11T01:50:23.196Z,7.77
2023-04-11T01:53:10.757Z,7.10
2023-04-11T01:55:57.753Z,7.43
2023-04-11T01:58:44.745Z,7.23
2023-04-11T02:01:32.015Z,6.90
2023-04-11T02:04:19.285Z,6.40
2023-04-11T02:07:06.329Z,7.93
2023-04-11T02:09:53.276Z,6.67
2023-04-11T02:12:40.222Z,7.33
2023-04-11T02:15:27.230Z,7.33
2023-04-11T02:18:14.276Z,7.30
2023-04-11T02:21:01.231Z,6.80
2023-04-11T02:23:48.173Z,7.57
2023-04-11T02:26:35.110Z,6.87
2023-04-11T02:29:22.077Z,6.77
2023-04-11T02:32:10.063Z,6.87
2023-04-11T02:34:57.076Z,7.00
2023-04-11T02:37:44.253Z,6.80
2023-04-11T02:40:31.371Z,6.37
2023-04-11T02:43:19.346Z,7.17
2023-04-11T02:46:12.809Z,7.13
2023-04-11T02:49:03.726Z,7.10
2023-04-11T02:51:50.885Z,6.77
2023-04-11T02:54:37.881Z,7.13
2023-04-11T02:57:24.828Z,6.50
2023-04-11T03:00:13.142Z,6.37
2023-04-11T03:03:08.630Z,5.97
2023-04-11T03:06:01.097Z,6.83
2023-04-11T03:08:50.040Z,5.47
2023-04-11T03:11:37.592Z,5.23
2023-04-11T03:14:25.549Z,5.83
2023-04-11T03:17:12.727Z,5.50
2023-04-11T03:19:59.675Z,5.27
2023-04-11T03:22:46.883Z,4.40
2023-04-11T03:25:34.185Z,3.83
2023-04-11T03:28:24.088Z,4.00
2023-04-11T03:31:12.094Z,3.73
2023-04-11T03:33:59.963Z,3.83
2023-04-11T03:36:47.382Z,3.37
2023-04-11T03:39:34.526Z,3.30
2023-04-11T03:42:22.624Z,2.93
2023-04-11T03:45:15.160Z,2.97
2023-04-11T03:48:02.570Z,2.83
2023-04-11T03:51:04.006Z,4.67
2023-04-11T03:53:59.145Z,2.90
2023-04-11T03:56:50.750Z,3.20
2023-04-11T03:59:42.637Z,2.50
2023-04-11T04:02:32.551Z,2.93
2023-04-11T04:05:21.093Z,2.70
2023-04-11T04:08:08.767Z,2.83
2023-04-11T04:11:02.978Z,2.70
2023-04-11T04:13:52.825Z,2.70
2023-04-11T04:16:40.560Z,3.20
2023-04-11T04:19:27.968Z,3.20
2023-04-11T04:22:17.584Z,4.00
2023-04-11T04:25:12.724Z,2.70
2023-04-11T04:28:01.000Z,2.90
2023-04-11T04:30:58.100Z,3.20
2023-04-11T04:33:49.512Z,3.07
2023-04-11T04:36:47.652Z,3.47
2023-04-11T04:39:39.280Z,4.27
2023-04-11T04:42:29.691Z,4.27
2023-04-11T04:45:22.672Z,4.77
2023-04-11T04:48:09.834Z,4.37
2023-04-11T04:50:57.016Z,5.40
2023-04-11T04:53:44.095Z,5.80
2023-04-11T04:56:32.116Z,5.80
2023-04-11T04:59:19.894Z,5.67
2023-04-11T05:02:13.560Z,5.97
2023-04-11T05:05:04.350Z,6.00
2023-04-11T05:07:53.102Z,6.83
2023-04-11T05:10:40.741Z,6.20
2023-04-11T05:13:33.933Z,5.67
2023-04-11T05:16:23.067Z,5.73
2023-04-11T05:19:10.252Z,6.67
2023-04-11T05:22:01.548Z,6.90
2023-04-11T05:24:48.691Z,6.20
2023-04-11T05:27:36.136Z,5.63
2023-04-11T05:30:23.790Z,4.93
2023-04-11T05:33:12.758Z,5.50
2023-04-11T05:36:01.469Z,4.50
2023-04-11T05:38:49.017Z,3.93
2023-04-11T05:41:36.016Z,3.53
2023-04-11T05:44:24.053Z,3.23
2023-04-11T05:47:11.828Z,2.90
2023-04-11T05:49:58.889Z,3.53
2023-04-11T05:52:46.022Z,3.07
2023-04-11T05:55:33.514Z,2.97
2023-04-11T05:58:20.699Z,3.60
2023-04-11T06:01:12.279Z,3.20
2023-04-11T06:03:59.699Z,4.00
2023-04-11T06:06:46.836Z,3.60
2023-04-11T06:09:34.290Z,4.10
2023-04-11T06:12:21.345Z,4.30
2023-04-11T06:15:09.312Z,4.33
2023-04-11T06:17:56.424Z,4.03
2023-04-11T06:20:43.448Z,3.60
2023-04-11T06:23:30.539Z,3.80
2023-04-11T06:26:17.473Z,3.60
2023-04-11T06:29:05.771Z,4.13
2023-04-11T06:31:52.787Z,3.33
2023-04-11T06:34:39.839Z,3.43
2023-04-11T06:37:27.127Z,2.87
2023-04-11T06:40:14.102Z,3.07
2023-04-11T06:43:01.845Z,3.87
2023-04-11T06:45:49.637Z,3.27
2023-04-11T06:48:36.731Z,3.17
2023-04-11T06:51:26.552Z,3.03
2023-04-11T06:54:13.519Z,2.93
2023-04-11T06:57:02.094Z,2.53
2023-04-11T06:59:49.060Z,2.83
2023-04-11T07:02:36.237Z,2.40
2023-04-11T07:05:23.372Z,2.83
2023-04-11T07:08:10.640Z,3.17
2023-04-11T07:10:57.616Z,2.90
2023-04-11T07:13:44.674Z,2.27
2023-04-11T07:16:31.759Z,2.23
2023-04-11T07:19:18.771Z,2.83
2023-04-11T07:22:05.792Z,2.30
2023-04-11T07:24:55.124Z,1.83
2023-04-11T07:27:43.578Z,2.40
2023-04-11T07:30:30.734Z,2.10
2023-04-11T07:33:17.724Z,2.87
2023-04-11T07:36:06.477Z,2.60
2023-04-11T07:38:54.013Z,3.10
2023-04-11T07:41:41.155Z,2.57
2023-04-11T07:44:28.139Z,2.77
2023-04-11T07:47:15.783Z,2.40
2023-04-11T07:50:03.781Z,1.83
2023-04-11T07:52:51.305Z,1.53
2023-04-11T07:55:38.559Z,1.00
2023-04-11T07:58:25.558Z,0.80
2023-04-11T08:01:23.104Z,2.23
2023-04-11T08:04:10.176Z,0.70
2023-04-11T08:06:58.105Z,1.90
2023-04-11T08:09:45.214Z,1.93
2023-04-11T08:12:32.289Z,0.90
2023-04-11T08:15:19.383Z,1.07
2023-04-11T08:18:06.397Z,0.73
2023-04-11T08:20:56.425Z,0.87
2023-04-11T08:23:43.391Z,0.83
2023-04-11T08:26:30.878Z,0.80
2023-04-11T08:29:17.869Z,0.60
2023-04-11T08:32:04.981Z,0.60
2023-04-11T08:34:51.925Z,0.50
2023-04-11T08:37:39.306Z,0.60
2023-04-11T08:40:27.673Z,0.40
2023-04-11T08:43:14.680Z,0.30
2023-04-11T08:46:05.497Z,0.50
2023-04-11T08:48:52.558Z,0.57
2023-04-11T08:51:42.138Z,0.40
2023-04-11T08:54:29.992Z,0.60
2023-04-11T08:57:26.144Z,0.60
2023-04-11T09:00:14.645Z,0.80
2023-04-11T09:03:04.003Z,0.60
2023-04-11T09:05:51.245Z,0.97
2023-04-11T09:08:39.313Z,1.73
2023-04-11T09:11:26.919Z,2.13
2023-04-11T09:14:14.000Z,0.77
2023-04-11T09:17:06.597Z,1.00
2023-04-11T09:19:53.768Z,0.40
2023-04-11T09:22:43.102Z,0.50
2023-04-11T09:25:44.001Z,0.23
2023-04-11T09:28:52.762Z,0.40
2023-04-11T09:31:45.459Z,0.40
2023-04-11T09:34:34.842Z,0.50
2023-04-11T09:37:21.770Z,0.40
2023-04-11T09:40:09.071Z,0.50
2023-04-11T09:43:01.681Z,0.80
2023-04-11T09:45:54.447Z,0.40
2023-04-11T09:51:36.816Z,0.73
2023-04-11T09:54:27.642Z,1.30
2023-04-11T09:57:14.938Z,0.90
2023-04-11T10:00:16.076Z,0.73
2023-04-11T10:03:03.291Z,0.70
2023-04-11T10:05:53.190Z,0.50
2023-04-11T10:08:41.794Z,0.63
2023-04-11T10:11:28.859Z,0.60
2023-04-11T10:14:45.048Z,0.60
2023-04-11T10:17:32.365Z,0.60
2023-04-11T10:20:31.537Z,0.53
2023-04-11T10:23:18.670Z,0.70
2023-04-11T10:26:08.586Z,0.50
2023-04-11T10:28:55.614Z,0.47
2023-04-11T10:32:16.599Z,0.73
2023-04-11T10:35:12.597Z,0.60
2023-04-11T10:37:59.616Z,2.10
2023-04-11T10:41:25.323Z,0.60
2023-04-11T10:44:24.638Z,1.17
2023-04-11T10:47:17.580Z,0.90
2023-04-11T10:50:24.779Z,1.17
2023-04-11T10:53:36.461Z,0.93
2023-04-11T10:56:51.445Z,0.70
2023-04-11T10:59:38.349Z,0.93
2023-04-11T11:02:35.996Z,1.13
2023-04-11T11:05:24.249Z,1.00
2023-04-11T11:08:11.630Z,1.80
2023-04-11T11:11:03.718Z,1.23
2023-04-11T11:13:53.083Z,0.93
2023-04-11T11:16:46.316Z,1.03
2023-04-11T11:19:33.812Z,1.40
2023-04-11T11:22:28.598Z,2.60
2023-04-11T11:25:15.563Z,0.97
2023-04-11T11:28:07.813Z,1.93
2023-04-11T11:30:56.996Z,1.07
2023-04-11T11:33:44.003Z,2.83
2023-04-11T11:36:32.937Z,1.10
2023-04-11T11:39:21.981Z,1.63
2023-04-11T11:42:10.896Z,1.40
2023-04-11T11:45:16.969Z,1.53
2023-04-11T11:48:04.110Z,2.50
2023-04-11T11:50:58.148Z,1.93
2023-04-11T11:54:03.553Z,2.00
2023-04-11T11:56:54.949Z,2.07
2023-04-11T11:59:42.078Z,2.30
2023-04-11T12:02:29.285Z,2.00
2023-04-11T12:05:17.228Z,2.37
2023-04-11T12:08:06.328Z,0.87
2023-04-11T12:10:53.296Z,3.23
2023-04-11T12:13:40.302Z,3.40
2023-04-11T12:16:27.417Z,1.10
2023-04-11T12:19:14.504Z,1.03
2023-04-11T12:22:01.817Z,0.70
2023-04-11T12:24:52.631Z,0.87
2023-04-11T12:27:42.015Z,1.97
2023-04-11T12:30:30.094Z,0.80
2023-04-11T12:33:17.432Z,1.33
2023-04-11T12:36:07.802Z,1.10
2023-04-11T12:38:55.039Z,1.57
2023-04-11T12:41:42.056Z,2.53
2023-04-11T12:44:29.075Z,1.10
2023-04-11T12:47:16.498Z,2.30
2023-04-11T12:50:04.548Z,1.27
2023-04-11T12:52:53.134Z,0.97
2023-04-11T12:55:40.234Z,1.37
2023-04-11T12:58:28.728Z,0.97
2023-04-11T13:01:16.423Z,1.00
2023-04-11T13:04:03.886Z,1.60
2023-04-11T13:06:52.343Z,1.03
2023-04-11T13:09:39.502Z,1.90
2023-04-11T13:12:27.549Z,0.80
2023-04-11T13:15:16.561Z,0.90
2023-04-11T13:18:03.745Z,2.10
2023-04-11T13:20:50.769Z,1.33
2023-04-11T13:23:37.739Z,1.17
2023-04-11T13:26:24.909Z,1.10
2023-04-11T13:29:12.260Z,0.87
2023-04-11T13:31:59.360Z,2.10
2023-04-11T13:34:46.434Z,1.73
2023-04-11T13:37:33.421Z,2.17
2023-04-11T13:40:20.420Z,1.53
2023-04-11T13:43:07.460Z,1.63
2023-04-11T13:45:54.461Z,0.93
2023-04-11T13:48:41.519Z,1.13
2023-04-11T13:51:28.604Z,0.70
2023-04-11T13:54:15.618Z,2.57
2023-04-11T13:57:06.785Z,1.17
2023-04-11T13:59:54.053Z,2.17
2023-04-11T14:02:41.667Z,1.20
2023-04-11T14:05:32.001Z,1.17
2023-04-11T14:08:18.984Z,1.43
2023-04-11T14:11:06.569Z,1.30
2023-04-11T14:13:53.607Z,0.97
2023-04-11T14:16:40.689Z,0.70
2023-04-11T14:19:27.696Z,2.20
2023-04-11T14:22:14.923Z,1.47
2023-04-11T14:25:01.967Z,0.93
2023-04-11T14:27:48.991Z,0.93
2023-04-11T14:30:36.049Z,1.10
2023-04-11T14:33:23.507Z,1.30
2023-04-11T14:36:10.563Z,0.87
2023-04-11T14:38:57.680Z,0.60
2023-04-11T14:41:44.653Z,0.63
2023-04-11T14:44:31.727Z,1.07
2023-04-11T14:47:19.446Z,0.93
2023-04-11T14:50:07.460Z,1.17
2023-04-11T14:52:54.835Z,1.33
2023-04-11T14:55:42.786Z,1.50
2023-04-11T14:58:30.412Z,1.17
2023-04-11T15:01:18.201Z,0.87
2023-04-11T15:04:05.418Z,1.13
2023-04-11T15:06:53.248Z,1.70
2023-04-11T15:09:40.346Z,0.80
2023-04-11T15:12:27.360Z,1.27
2023-04-11T15:15:15.611Z,2.70
2023-04-11T15:18:26.855Z,2.37
2023-04-11T15:21:14.190Z,2.40
2023-04-11T15:24:01.179Z,1.70
2023-04-11T15:26:48.175Z,1.40
2023-04-11T15:29:36.403Z,2.77
2023-04-11T15:32:23.501Z,0.93
2023-04-11T15:35:10.632Z,1.30
2023-04-11T15:38:00.369Z,1.37
2023-04-11T15:40:52.174Z,1.37
2023-04-11T15:43:40.373Z,0.80
2023-04-11T15:46:27.650Z,0.93
2023-04-11T15:49:14.698Z,2.53
2023-04-11T15:52:01.705Z,0.70
2023-04-11T15:54:48.678Z,0.67
2023-04-11T15:57:36.263Z,1.67
2023-04-11T16:00:23.305Z,0.60
2023-04-11T16:03:11.284Z,0.83
2023-04-11T16:05:59.245Z,1.37
2023-04-11T16:08:46.302Z,0.53
2023-04-11T16:11:33.516Z,1.20
2023-04-11T16:14:20.452Z,0.50
2023-04-11T16:17:07.439Z,1.03
2023-04-11T16:19:54.434Z,0.53
2023-04-11T16:22:41.526Z,0.60
2023-04-11T16:25:28.607Z,0.50
2023-04-11T16:28:15.624Z,0.67
2023-04-11T16:31:02.581Z,0.83
2023-04-11T16:33:50.269Z,0.40
2023-04-11T16:36:37.236Z,1.40
2023-04-11T16:39:24.259Z,1.03
2023-04-11T16:42:11.394Z,0.90
2023-04-11T16:44:58.351Z,2.03
2023-04-11T16:47:45.341Z,1.30
2023-04-11T16:50:32.331Z,1.17
2023-04-11T16:53:19.918Z,2.17
2023-04-11T16:56:07.185Z,7.13
2023-04-11T16:58:54.207Z,5.37
2023-04-11T17:01:42.003Z,4.60
2023-04-11T17:04:29.314Z,2.40
2023-04-11T17:07:16.603Z,1.43
2023-04-11T17:10:05.165Z,1.33
2023-04-11T17:12:53.949Z,1.40
2023-04-11T17:15:40.952Z,1.00
2023-04-11T17:18:27.930Z,1.50
2023-04-11T17:21:14.898Z,2.30
2023-04-11T17:24:02.089Z,2.00
2023-04-11T17:26:49.067Z,1.53
2023-04-11T17:29:36.668Z,1.77
2023-04-11T17:32:23.716Z,3.60
2023-04-11T17:35:11.184Z,3.00
2023-04-11T17:37:58.200Z,2.23
2023-04-11T17:40:45.329Z,1.80
2023-04-11T17:43:32.588Z,3.20
2023-04-11T17:46:20.382Z,4.20
2023-04-11T17:49:07.503Z,2.40
2023-04-11T17:51:59.142Z,4.30
2023-04-11T17:54:47.009Z,10.80
2023-04-11T17:57:34.640Z,7.27
2023-04-11T18:00:26.604Z,2.70
2023-04-11T18:03:14.866Z,2.90
2023-04-11T18:06:02.042Z,1.60
2023-04-11T18:08:51.393Z,1.30
2023-04-11T18:11:39.031Z,3.13
2023-04-11T18:14:26.049Z,0.80
2023-04-11T18:17:13.183Z,0.80
2023-04-11T18:20:01.666Z,0.83
2023-04-11T18:22:59.494Z,1.27
2023-04-11T18:25:46.469Z,1.00
2023-04-11T18:28:33.540Z,2.07
2023-04-11T18:31:20.753Z,1.13
2023-04-11T18:34:08.208Z,0.80
2023-04-11T18:36:56.004Z,0.87
2023-04-11T18:39:43.180Z,1.80
2023-04-11T18:42:30.345Z,0.83
2023-04-11T18:45:20.204Z,1.30
2023-04-11T18:48:07.371Z,1.43
2023-04-11T18:51:01.355Z,0.80
2023-04-11T18:53:48.988Z,1.13
2023-04-11T18:56:38.742Z,0.87
2023-04-11T18:59:29.501Z,0.97
2023-04-11T19:02:17.246Z,1.13
2023-04-11T19:05:07.847Z,1.20
2023-04-11T19:07:55.925Z,0.83
2023-04-11T19:10:42.983Z,0.80
2023-04-11T19:13:30.234Z,1.20
2023-04-11T19:16:17.371Z,1.67
2023-04-11T19:19:04.461Z,0.73
2023-04-11T19:21:51.709Z,0.93
2023-04-11T19:24:38.755Z,0.73
2023-04-11T19:27:25.913Z,0.83
2023-04-11T19:30:13.773Z,1.50
2023-04-11T19:33:01.269Z,0.70
2023-04-11T19:35:48.406Z,0.90
2023-04-11T19:38:36.064Z,0.80
2023-04-11T19:41:23.312Z,0.77
2023-04-11T19:44:10.785Z,1.10
2023-04-11T19:46:57.838Z,0.90
2023-04-11T19:49:44.900Z,1.10
2023-04-11T19:52:31.959Z,1.20
2023-04-11T19:55:19.070Z,1.10
2023-04-11T19:58:06.131Z,0.80
2023-04-11T20:00:53.205Z,1.00
2023-04-11T20:03:40.727Z,0.87
2023-04-11T20:06:28.119Z,0.80
2023-04-11T20:09:15.934Z,0.90
2023-04-11T20:12:05.517Z,0.83
2023-04-11T20:14:52.572Z,0.80
2023-04-11T20:17:39.842Z,0.83
2023-04-11T20:20:28.202Z,0.70
2023-04-11T20:23:17.888Z,0.77
2023-04-11T20:26:05.399Z,0.77
2023-04-11T20:28:53.030Z,0.60
2023-04-11T20:31:40.356Z,0.73
2023-04-11T20:34:27.397Z,0.70
2023-04-11T20:37:16.223Z,0.60
2023-04-11T20:40:10.246Z,0.60
2023-04-11T20:43:00.065Z,0.97
2023-04-11T20:45:47.138Z,0.60
2023-04-11T20:48:34.598Z,0.93
2023-04-11T20:51:22.681Z,2.13
2023-04-11T20:54:09.844Z,1.60
2023-04-11T20:56:56.888Z,0.93
2023-04-11T20:59:43.832Z,1.50
2023-04-11T21:02:32.377Z,0.97
2023-04-11T21:05:24.609Z,0.97
2023-04-11T21:08:11.899Z,1.00
2023-04-11T21:10:59.095Z,1.30
2023-04-11T21:13:48.354Z,1.37
2023-04-11T21:16:35.284Z,2.03
2023-04-11T21:19:22.234Z,2.00
2023-04-11T21:22:09.177Z,2.37
2023-04-11T21:24:56.108Z,1.80
2023-04-11T21:27:43.438Z,1.70
2023-04-11T21:30:30.724Z,2.00
2023-04-11T21:33:17.740Z,2.00
2023-04-11T21:36:05.044Z,2.10
2023-04-11T21:38:52.058Z,2.40
2023-04-11T21:41:39.000Z,2.50
2023-04-11T21:44:25.935Z,2.03
2023-04-11T21:47:12.880Z,2.03
2023-04-11T21:49:59.839Z,1.77
2023-04-11T21:52:46.914Z,1.83
2023-04-11T21:55:34.309Z,2.67
2023-04-11T21:58:29.000Z,2.50
2023-04-11T22:01:17.132Z,2.00
2023-04-11T22:04:04.439Z,2.87
2023-04-11T22:06:54.088Z,1.70
2023-04-11T22:09:46.185Z,2.00
2023-04-11T22:12:33.126Z,1.70
2023-04-11T22:15:20.169Z,2.27
2023-04-11T22:18:10.156Z,2.10
2023-04-11T22:20:57.169Z,1.70
2023-04-11T22:23:44.120Z,1.80
2023-04-11T22:26:34.221Z,2.33
2023-04-11T22:29:22.084Z,2.07
2023-04-11T22:32:09.201Z,2.20
2023-04-11T22:34:56.330Z,2.20
2023-04-11T22:37:43.354Z,2.37
2023-04-11T22:40:30.340Z,1.60
2023-04-11T22:43:17.625Z,1.53
2023-04-11T22:46:04.762Z,1.80
2023-04-11T22:48:52.553Z,2.03
2023-04-11T22:51:40.906Z,2.90
2023-04-11T22:54:28.629Z,2.40
2023-04-11T22:57:15.557Z,2.50
2023-04-11T23:00:04.623Z,2.20
2023-04-11T23:02:52.521Z,2.30
2023-04-11T23:05:40.984Z,2.07
2023-04-11T23:08:29.331Z,2.10
2023-04-11T23:11:17.120Z,3.87
2023-04-11T23:14:04.369Z,2.10
2023-04-11T23:16:51.321Z,1.70
2023-04-11T23:19:38.801Z,2.40
2023-04-11T23:22:26.407Z,2.10
2023-04-11T23:25:14.966Z,2.07
2023-04-11T23:28:02.105Z,1.97
2023-04-11T23:30:49.103Z,1.77
2023-04-11T23:33:36.050Z,4.30
2023-04-11T23:36:22.999Z,1.70
2023-04-11T23:39:09.949Z,1.87
2023-04-11T23:41:57.113Z,1.67
2023-04-11T23:44:44.030Z,2.20
2023-04-11T23:47:31.307Z,1.57
2023-04-11T23:50:19.105Z,1.67
2023-04-11T23:53:06.567Z,1.70
2023-04-11T23:55:53.580Z,2.03
2023-04-11T23:58:40.587Z,1.90
